sensor_id;sensor_type;location;lat;lon;timestamp;temperature;humidity
54082;DHT22;39986;50.770;0.266;2023-03-14T00:01:07;9.90;99.90
54082;DHT22;39986;50.770;0.266;2023-03-14T00:03:33;9.90;99.90
54082;DHT22;39986;50.770;0.266;2023-03-14T00:06:01;9.90;99.90
54082;DHT22;39986;50.770;0.266;2023-03-14T00:08:27;10.00;99.90
54082;DHT22;39986;50.770;0.266;2023-03-14T00:10:52;10.00;99.90
54082;DHT22;39986;50.770;0.266;2023-03-14T00:13:18;10.00;99.90
54082;DHT22;39986;50.770;0.266;2023-03-14T00:15:43;10.00;99.90
54082;DHT22;39986;50.770;0.266;2023-03-14T00:18:09;10.20;99.90
54082;DHT22;39986;50.770;0.266;2023-03-14T00:20:34;10.00;99.90
54082;DHT22;39986;50.770;0.266;2023-03-14T00:23:00;10.10;99.90
54082;DHT22;39986;50.770;0.266;2023-03-14T00:25:25;10.00;99.90
54082;DHT22;39986;50.770;0.266;2023-03-14T00:27:51;10.00;99.90
54082;DHT22;39986;50.770;0.266;2023-03-14T00:30:17;10.00;99.90
54082;DHT22;39986;50.770;0.266;2023-03-14T00:32:43;10.00;99.90
54082;DHT22;39986;50.770;0.266;2023-03-14T00:35:08;10.00;99.90
54082;DHT22;39986;50.770;0.266;2023-03-14T00:37:34;10.00;99.90
54082;DHT22;39986;50.770;0.266;2023-03-14T00:39:59;10.00;99.90
54082;DHT22;39986;50.770;0.266;2023-03-14T00:42:25;10.00;99.90
54082;DHT22;39986;50.770;0.266;2023-03-14T00:44:50;10.00;99.90
54082;DHT22;39986;50.770;0.266;2023-03-14T00:47:16;10.00;99.90
54082;DHT22;39986;50.770;0.266;2023-03-14T00:49:41;9.90;99.90
54082;DHT22;39986;50.770;0.266;2023-03-14T00:52:09;10.00;99.90
54082;DHT22;39986;50.770;0.266;2023-03-14T00:54:34;9.90;99.90
54082;DHT22;39986;50.770;0.266;2023-03-14T00:57:00;9.90;99.90
54082;DHT22;39986;50.770;0.266;2023-03-14T00:59:25;9.90;99.90
54082;DHT22;39986;50.770;0.266;2023-03-14T01:01:51;10.10;99.90
54082;DHT22;39986;50.770;0.266;2023-03-14T01:04:16;9.90;99.90
54082;DHT22;39986;50.770;0.266;2023-03-14T01:06:42;10.00;99.90
54082;DHT22;39986;50.770;0.266;2023-03-14T01:09:07;10.00;99.90
54082;DHT22;39986;50.770;0.266;2023-03-14T01:11:33;10.10;99.90
54082;DHT22;39986;50.770;0.266;2023-03-14T01:14:00;10.10;99.90
54082;DHT22;39986;50.770;0.266;2023-03-14T01:16:26;10.00;99.90
54082;DHT22;39986;50.770;0.266;2023-03-14T01:18:52;10.00;99.90
54082;DHT22;39986;50.770;0.266;2023-03-14T01:21:19;10.00;99.90
54082;DHT22;39986;50.770;0.266;2023-03-14T01:23:45;10.00;99.90
54082;DHT22;39986;50.770;0.266;2023-03-14T01:26:12;10.00;99.90
54082;DHT22;39986;50.770;0.266;2023-03-14T01:28:38;9.90;99.90
54082;DHT22;39986;50.770;0.266;2023-03-14T01:31:08;10.00;99.90
54082;DHT22;39986;50.770;0.266;2023-03-14T01:33:33;10.00;99.90
54082;DHT22;39986;50.770;0.266;2023-03-14T01:35:59;10.00;99.90
54082;DHT22;39986;50.770;0.266;2023-03-14T01:38:24;9.90;99.90
54082;DHT22;39986;50.770;0.266;2023-03-14T01:40:50;9.90;99.90
54082;DHT22;39986;50.770;0.266;2023-03-14T01:43:16;9.90;99.90
54082;DHT22;39986;50.770;0.266;2023-03-14T01:48:24;9.90;99.90
54082;DHT22;39986;50.770;0.266;2023-03-14T01:50:50;9.80;99.90
54082;DHT22;39986;50.770;0.266;2023-03-14T01:53:16;9.80;99.90
54082;DHT22;39986;50.770;0.266;2023-03-14T01:55:42;9.80;99.90
54082;DHT22;39986;50.770;0.266;2023-03-14T01:58:08;9.80;99.90
54082;DHT22;39986;50.770;0.266;2023-03-14T02:00:33;9.80;99.90
54082;DHT22;39986;50.770;0.266;2023-03-14T02:03:02;9.70;99.90
54082;DHT22;39986;50.770;0.266;2023-03-14T02:05:32;9.70;99.90
54082;DHT22;39986;50.770;0.266;2023-03-14T02:07:59;9.60;99.90
54082;DHT22;39986;50.770;0.266;2023-03-14T02:10:32;9.70;99.90
54082;DHT22;39986;50.770;0.266;2023-03-14T02:12:59;9.70;99.90
54082;DHT22;39986;50.770;0.266;2023-03-14T02:15:25;9.70;99.90
54082;DHT22;39986;50.770;0.266;2023-03-14T02:17:50;9.70;99.90
54082;DHT22;39986;50.770;0.266;2023-03-14T02:23:00;9.70;99.90
54082;DHT22;39986;50.770;0.266;2023-03-14T02:27:52;9.80;99.90
54082;DHT22;39986;50.770;0.266;2023-03-14T02:30:19;9.80;99.90
54082;DHT22;39986;50.770;0.266;2023-03-14T02:32:48;9.80;99.90
54082;DHT22;39986;50.770;0.266;2023-03-14T02:35:18;9.90;99.90
54082;DHT22;39986;50.770;0.266;2023-03-14T02:37:52;9.80;99.90
54082;DHT22;39986;50.770;0.266;2023-03-14T02:40:20;9.80;99.90
54082;DHT22;39986;50.770;0.266;2023-03-14T02:42:45;9.60;99.90
54082;DHT22;39986;50.770;0.266;2023-03-14T02:47:37;8.80;99.90
54082;DHT22;39986;50.770;0.266;2023-03-14T02:50:12;8.60;99.90
54082;DHT22;39986;50.770;0.266;2023-03-14T02:52:38;8.30;99.90
54082;DHT22;39986;50.770;0.266;2023-03-14T02:55:04;8.10;99.90
54082;DHT22;39986;50.770;0.266;2023-03-14T02:57:30;8.00;99.90
54082;DHT22;39986;50.770;0.266;2023-03-14T02:59:59;7.90;99.90
54082;DHT22;39986;50.770;0.266;2023-03-14T03:02:25;7.80;99.90
54082;DHT22;39986;50.770;0.266;2023-03-14T03:04:51;7.80;99.90
54082;DHT22;39986;50.770;0.266;2023-03-14T03:07:16;7.80;99.90
54082;DHT22;39986;50.770;0.266;2023-03-14T03:09:42;7.70;99.90
54082;DHT22;39986;50.770;0.266;2023-03-14T03:12:07;7.70;99.90
54082;DHT22;39986;50.770;0.266;2023-03-14T03:14:33;7.80;99.90
54082;DHT22;39986;50.770;0.266;2023-03-14T03:16:58;7.80;99.90
54082;DHT22;39986;50.770;0.266;2023-03-14T03:19:24;7.90;99.90
54082;DHT22;39986;50.770;0.266;2023-03-14T03:21:49;7.80;99.90
54082;DHT22;39986;50.770;0.266;2023-03-14T03:24:15;7.80;99.90
54082;DHT22;39986;50.770;0.266;2023-03-14T03:26:41;7.80;99.90
54082;DHT22;39986;50.770;0.266;2023-03-14T03:29:06;7.80;99.90
54082;DHT22;39986;50.770;0.266;2023-03-14T03:31:32;7.70;99.90
54082;DHT22;39986;50.770;0.266;2023-03-14T03:33:57;7.70;99.90
54082;DHT22;39986;50.770;0.266;2023-03-14T03:36:24;7.70;99.90
54082;DHT22;39986;50.770;0.266;2023-03-14T03:38:50;7.70;99.90
54082;DHT22;39986;50.770;0.266;2023-03-14T03:41:15;7.70;99.90
54082;DHT22;39986;50.770;0.266;2023-03-14T03:43:41;7.70;99.90
54082;DHT22;39986;50.770;0.266;2023-03-14T03:46:07;7.70;99.90
54082;DHT22;39986;50.770;0.266;2023-03-14T03:48:33;7.70;99.90
54082;DHT22;39986;50.770;0.266;2023-03-14T03:50:58;7.60;99.90
54082;DHT22;39986;50.770;0.266;2023-03-14T03:53:24;7.60;99.90
54082;DHT22;39986;50.770;0.266;2023-03-14T03:55:49;7.60;99.90
54082;DHT22;39986;50.770;0.266;2023-03-14T03:58:15;7.50;99.90
54082;DHT22;39986;50.770;0.266;2023-03-14T04:00:40;7.50;99.90
54082;DHT22;39986;50.770;0.266;2023-03-14T04:03:06;7.50;99.90
54082;DHT22;39986;50.770;0.266;2023-03-14T04:05:32;7.50;99.90
54082;DHT22;39986;50.770;0.266;2023-03-14T04:07:59;7.40;99.90
54082;DHT22;39986;50.770;0.266;2023-03-14T04:10:25;7.30;99.90
54082;DHT22;39986;50.770;0.266;2023-03-14T04:12:50;7.20;99.90
54082;DHT22;39986;50.770;0.266;2023-03-14T04:15:16;7.20;99.90
54082;DHT22;39986;50.770;0.266;2023-03-14T04:17:41;7.20;99.90
54082;DHT22;39986;50.770;0.266;2023-03-14T04:20:07;7.20;99.90
54082;DHT22;39986;50.770;0.266;2023-03-14T04:22:36;7.10;99.90
54082;DHT22;39986;50.770;0.266;2023-03-14T04:25:01;7.10;99.90
54082;DHT22;39986;50.770;0.266;2023-03-14T04:27:28;7.00;99.90
54082;DHT22;39986;50.770;0.266;2023-03-14T04:29:54;7.00;99.90
54082;DHT22;39986;50.770;0.266;2023-03-14T04:32:20;7.00;99.90
54082;DHT22;39986;50.770;0.266;2023-03-14T04:34:45;6.90;99.90
54082;DHT22;39986;50.770;0.266;2023-03-14T04:37:11;6.90;99.90
54082;DHT22;39986;50.770;0.266;2023-03-14T04:39:36;6.90;99.90
54082;DHT22;39986;50.770;0.266;2023-03-14T04:42:02;6.80;99.90
54082;DHT22;39986;50.770;0.266;2023-03-14T04:44:27;6.80;99.90
54082;DHT22;39986;50.770;0.266;2023-03-14T04:46:53;6.80;99.90
54082;DHT22;39986;50.770;0.266;2023-03-14T04:49:18;6.80;99.90
54082;DHT22;39986;50.770;0.266;2023-03-14T04:51:44;6.70;99.90
54082;DHT22;39986;50.770;0.266;2023-03-14T04:54:10;6.70;99.90
54082;DHT22;39986;50.770;0.266;2023-03-14T04:56:35;6.60;99.90
54082;DHT22;39986;50.770;0.266;2023-03-14T04:59:03;6.60;99.90
54082;DHT22;39986;50.770;0.266;2023-03-14T05:01:28;6.50;99.90
54082;DHT22;39986;50.770;0.266;2023-03-14T05:03:54;6.40;99.90
54082;DHT22;39986;50.770;0.266;2023-03-14T05:06:19;6.40;99.90
54082;DHT22;39986;50.770;0.266;2023-03-14T05:08:45;6.30;99.90
54082;DHT22;39986;50.770;0.266;2023-03-14T05:11:11;6.30;99.90
54082;DHT22;39986;50.770;0.266;2023-03-14T05:13:37;6.30;99.90
54082;DHT22;39986;50.770;0.266;2023-03-14T05:16:06;6.20;99.90
54082;DHT22;39986;50.770;0.266;2023-03-14T05:18:32;6.20;99.90
54082;DHT22;39986;50.770;0.266;2023-03-14T05:20:58;6.20;99.90
54082;DHT22;39986;50.770;0.266;2023-03-14T05:23:23;6.20;99.90
54082;DHT22;39986;50.770;0.266;2023-03-14T05:25:49;6.10;99.90
54082;DHT22;39986;50.770;0.266;2023-03-14T05:28:14;6.10;99.90
54082;DHT22;39986;50.770;0.266;2023-03-14T05:30:40;6.10;99.90
54082;DHT22;39986;50.770;0.266;2023-03-14T05:33:05;6.00;99.90
54082;DHT22;39986;50.770;0.266;2023-03-14T05:35:31;6.00;99.90
54082;DHT22;39986;50.770;0.266;2023-03-14T05:37:56;6.00;99.90
54082;DHT22;39986;50.770;0.266;2023-03-14T05:40:22;5.90;99.90
54082;DHT22;39986;50.770;0.266;2023-03-14T05:42:48;5.90;99.90
54082;DHT22;39986;50.770;0.266;2023-03-14T05:45:13;5.90;99.90
54082;DHT22;39986;50.770;0.266;2023-03-14T05:47:39;5.80;99.90
54082;DHT22;39986;50.770;0.266;2023-03-14T05:50:04;5.70;99.90
54082;DHT22;39986;50.770;0.266;2023-03-14T05:52:30;5.70;99.90
54082;DHT22;39986;50.770;0.266;2023-03-14T05:54:56;5.70;99.90
54082;DHT22;39986;50.770;0.266;2023-03-14T05:57:21;5.70;99.90
54082;DHT22;39986;50.770;0.266;2023-03-14T05:59:47;5.70;99.90
54082;DHT22;39986;50.770;0.266;2023-03-14T06:02:12;5.70;99.90
54082;DHT22;39986;50.770;0.266;2023-03-14T06:04:38;5.60;99.90
54082;DHT22;39986;50.770;0.266;2023-03-14T06:07:03;5.60;99.90
54082;DHT22;39986;50.770;0.266;2023-03-14T06:09:29;5.60;99.90
54082;DHT22;39986;50.770;0.266;2023-03-14T06:11:54;5.60;99.90
54082;DHT22;39986;50.770;0.266;2023-03-14T06:14:20;5.60;99.90
54082;DHT22;39986;50.770;0.266;2023-03-14T06:16:45;5.60;99.90
54082;DHT22;39986;50.770;0.266;2023-03-14T06:19:13;5.60;99.90
54082;DHT22;39986;50.770;0.266;2023-03-14T06:21:38;5.60;99.90
54082;DHT22;39986;50.770;0.266;2023-03-14T06:24:04;5.60;99.90
54082;DHT22;39986;50.770;0.266;2023-03-14T06:26:30;5.60;99.90
54082;DHT22;39986;50.770;0.266;2023-03-14T06:28:55;5.60;99.90
54082;DHT22;39986;50.770;0.266;2023-03-14T06:31:20;5.60;99.90
54082;DHT22;39986;50.770;0.266;2023-03-14T06:33:49;5.70;99.90
54082;DHT22;39986;50.770;0.266;2023-03-14T06:36:15;5.70;99.90
54082;DHT22;39986;50.770;0.266;2023-03-14T06:38:40;5.70;99.90
54082;DHT22;39986;50.770;0.266;2023-03-14T06:41:06;5.70;99.90
54082;DHT22;39986;50.770;0.266;2023-03-14T06:43:32;5.70;99.90
54082;DHT22;39986;50.770;0.266;2023-03-14T06:45:58;5.80;99.90
54082;DHT22;39986;50.770;0.266;2023-03-14T06:48:23;5.80;99.90
54082;DHT22;39986;50.770;0.266;2023-03-14T06:50:49;5.90;99.90
54082;DHT22;39986;50.770;0.266;2023-03-14T06:53:14;6.00;99.90
54082;DHT22;39986;50.770;0.266;2023-03-14T06:55:40;6.00;99.90
54082;DHT22;39986;50.770;0.266;2023-03-14T06:58:05;6.10;99.90
54082;DHT22;39986;50.770;0.266;2023-03-14T07:00:33;6.10;99.90
54082;DHT22;39986;50.770;0.266;2023-03-14T07:02:58;6.20;99.90
54082;DHT22;39986;50.770;0.266;2023-03-14T07:05:24;6.30;99.90
54082;DHT22;39986;50.770;0.266;2023-03-14T07:07:50;6.40;99.90
54082;DHT22;39986;50.770;0.266;2023-03-14T07:10:15;6.40;99.90
54082;DHT22;39986;50.770;0.266;2023-03-14T07:12:41;6.50;99.90
54082;DHT22;39986;50.770;0.266;2023-03-14T07:15:07;6.60;99.90
54082;DHT22;39986;50.770;0.266;2023-03-14T07:17:32;6.60;99.90
54082;DHT22;39986;50.770;0.266;2023-03-14T07:19:58;6.80;99.90
54082;DHT22;39986;50.770;0.266;2023-03-14T07:22:24;6.80;99.90
54082;DHT22;39986;50.770;0.266;2023-03-14T07:24:50;6.90;99.90
54082;DHT22;39986;50.770;0.266;2023-03-14T07:27:15;6.90;99.90
54082;DHT22;39986;50.770;0.266;2023-03-14T07:29:41;6.90;99.90
54082;DHT22;39986;50.770;0.266;2023-03-14T07:32:06;7.00;99.90
54082;DHT22;39986;50.770;0.266;2023-03-14T07:34:33;7.10;99.90
54082;DHT22;39986;50.770;0.266;2023-03-14T07:36:58;7.20;99.90
54082;DHT22;39986;50.770;0.266;2023-03-14T07:39:24;7.30;99.90
54082;DHT22;39986;50.770;0.266;2023-03-14T07:41:50;7.30;99.90
54082;DHT22;39986;50.770;0.266;2023-03-14T07:44:15;7.40;99.90
54082;DHT22;39986;50.770;0.266;2023-03-14T07:46:41;7.40;99.90
54082;DHT22;39986;50.770;0.266;2023-03-14T07:49:07;7.50;99.90
54082;DHT22;39986;50.770;0.266;2023-03-14T07:51:32;7.60;99.90
54082;DHT22;39986;50.770;0.266;2023-03-14T07:53:58;7.70;99.90
54082;DHT22;39986;50.770;0.266;2023-03-14T07:56:23;7.70;99.90
54082;DHT22;39986;50.770;0.266;2023-03-14T07:58:49;7.80;99.90
54082;DHT22;39986;50.770;0.266;2023-03-14T08:01:14;8.30;99.90
54082;DHT22;39986;50.770;0.266;2023-03-14T08:03:40;8.00;99.90
54082;DHT22;39986;50.770;0.266;2023-03-14T08:06:06;8.00;99.90
54082;DHT22;39986;50.770;0.266;2023-03-14T08:08:31;8.10;99.90
54082;DHT22;39986;50.770;0.266;2023-03-14T08:11:02;8.10;99.90
54082;DHT22;39986;50.770;0.266;2023-03-14T08:13:27;8.20;99.90
54082;DHT22;39986;50.770;0.266;2023-03-14T08:15:53;8.30;99.90
54082;DHT22;39986;50.770;0.266;2023-03-14T08:18:18;8.50;99.90
54082;DHT22;39986;50.770;0.266;2023-03-14T08:20:44;8.60;99.90
54082;DHT22;39986;50.770;0.266;2023-03-14T08:23:09;9.00;99.90
54082;DHT22;39986;50.770;0.266;2023-03-14T08:25:35;9.10;99.90
54082;DHT22;39986;50.770;0.266;2023-03-14T08:28:00;9.30;99.90
54082;DHT22;39986;50.770;0.266;2023-03-14T08:30:26;9.50;99.90
54082;DHT22;39986;50.770;0.266;2023-03-14T08:32:52;9.60;99.90
54082;DHT22;39986;50.770;0.266;2023-03-14T08:35:17;9.70;99.90
54082;DHT22;39986;50.770;0.266;2023-03-14T08:37:43;9.60;99.90
54082;DHT22;39986;50.770;0.266;2023-03-14T08:40:08;9.60;99.90
54082;DHT22;39986;50.770;0.266;2023-03-14T08:42:37;9.70;99.90
54082;DHT22;39986;50.770;0.266;2023-03-14T08:45:03;9.90;99.90
54082;DHT22;39986;50.770;0.266;2023-03-14T08:47:29;10.00;99.90
54082;DHT22;39986;50.770;0.266;2023-03-14T08:49:54;10.30;99.90
54082;DHT22;39986;50.770;0.266;2023-03-14T08:52:20;10.30;99.90
54082;DHT22;39986;50.770;0.266;2023-03-14T08:54:46;10.30;99.90
54082;DHT22;39986;50.770;0.266;2023-03-14T08:57:11;10.00;99.90
54082;DHT22;39986;50.770;0.266;2023-03-14T08:59:37;9.90;99.90
54082;DHT22;39986;50.770;0.266;2023-03-14T09:02:02;9.60;99.90
54082;DHT22;39986;50.770;0.266;2023-03-14T09:04:31;9.70;99.90
54082;DHT22;39986;50.770;0.266;2023-03-14T09:06:57;9.60;99.90
54082;DHT22;39986;50.770;0.266;2023-03-14T09:09:23;9.60;99.90
54082;DHT22;39986;50.770;0.266;2023-03-14T09:11:49;9.70;99.90
54082;DHT22;39986;50.770;0.266;2023-03-14T09:14:14;9.80;99.90
54082;DHT22;39986;50.770;0.266;2023-03-14T09:16:40;9.90;99.90
54082;DHT22;39986;50.770;0.266;2023-03-14T09:19:06;9.90;99.90
54082;DHT22;39986;50.770;0.266;2023-03-14T09:21:31;9.90;99.90
54082;DHT22;39986;50.770;0.266;2023-03-14T09:23:57;10.10;99.90
54082;DHT22;39986;50.770;0.266;2023-03-14T09:26:22;10.00;99.90
54082;DHT22;39986;50.770;0.266;2023-03-14T09:28:48;10.10;99.90
54082;DHT22;39986;50.770;0.266;2023-03-14T09:31:14;10.00;99.90
54082;DHT22;39986;50.770;0.266;2023-03-14T09:33:40;10.00;99.90
54082;DHT22;39986;50.770;0.266;2023-03-14T09:36:06;10.00;99.90
54082;DHT22;39986;50.770;0.266;2023-03-14T09:38:33;10.00;99.90
54082;DHT22;39986;50.770;0.266;2023-03-14T09:40:59;9.90;99.90
54082;DHT22;39986;50.770;0.266;2023-03-14T09:43:26;10.00;99.90
54082;DHT22;39986;50.770;0.266;2023-03-14T09:45:54;10.00;99.90
54082;DHT22;39986;50.770;0.266;2023-03-14T09:48:21;10.00;99.90
54082;DHT22;39986;50.770;0.266;2023-03-14T09:50:51;9.90;99.90
54082;DHT22;39986;50.770;0.266;2023-03-14T09:53:26;9.90;99.90
54082;DHT22;39986;50.770;0.266;2023-03-14T09:55:52;9.70;99.90
54082;DHT22;39986;50.770;0.266;2023-03-14T09:58:19;9.80;99.90
54082;DHT22;39986;50.770;0.266;2023-03-14T10:00:45;9.90;99.90
54082;DHT22;39986;50.770;0.266;2023-03-14T10:05:39;10.20;99.90
54082;DHT22;39986;50.770;0.266;2023-03-14T10:08:05;10.30;99.90
54082;DHT22;39986;50.770;0.266;2023-03-14T10:10:31;10.40;99.90
54082;DHT22;39986;50.770;0.266;2023-03-14T10:12:58;10.40;99.90
54082;DHT22;39986;50.770;0.266;2023-03-14T10:15:26;10.40;99.90
54082;DHT22;39986;50.770;0.266;2023-03-14T10:17:52;10.60;99.90
54082;DHT22;39986;50.770;0.266;2023-03-14T10:20:34;10.70;99.90
54082;DHT22;39986;50.770;0.266;2023-03-14T10:23:00;10.80;99.90
54082;DHT22;39986;50.770;0.266;2023-03-14T10:25:31;11.10;99.90
54082;DHT22;39986;50.770;0.266;2023-03-14T10:27:57;11.20;99.90
54082;DHT22;39986;50.770;0.266;2023-03-14T10:35:36;11.50;99.90
54082;DHT22;39986;50.770;0.266;2023-03-14T10:38:02;11.70;99.90
54082;DHT22;39986;50.770;0.266;2023-03-14T10:40:30;12.00;99.90
54082;DHT22;39986;50.770;0.266;2023-03-14T10:42:57;12.90;99.90
54082;DHT22;39986;50.770;0.266;2023-03-14T10:45:38;14.70;99.90
54082;DHT22;39986;50.770;0.266;2023-03-14T10:48:06;15.70;99.90
54082;DHT22;39986;50.770;0.266;2023-03-14T10:50:32;15.60;99.90
54082;DHT22;39986;50.770;0.266;2023-03-14T10:53:01;15.00;99.90
54082;DHT22;39986;50.770;0.266;2023-03-14T10:55:43;14.40;99.90
54082;DHT22;39986;50.770;0.266;2023-03-14T11:00:46;13.40;99.90
54082;DHT22;39986;50.770;0.266;2023-03-14T11:03:14;13.00;99.90
54082;DHT22;39986;50.770;0.266;2023-03-14T11:08:35;12.00;99.90
54082;DHT22;39986;50.770;0.266;2023-03-14T11:21:27;11.50;99.90
54082;DHT22;39986;50.770;0.266;2023-03-14T11:29:18;21.50;99.90
54082;DHT22;39986;50.770;0.266;2023-03-14T11:31:45;24.00;99.90
54082;DHT22;39986;50.770;0.266;2023-03-14T11:36:59;21.90;96.70
54082;DHT22;39986;50.770;0.266;2023-03-14T11:39:26;19.70;99.90
54082;DHT22;39986;50.770;0.266;2023-03-14T11:41:54;17.90;99.90
54082;DHT22;39986;50.770;0.266;2023-03-14T11:44:23;16.30;99.90
54082;DHT22;39986;50.770;0.266;2023-03-14T11:46:57;16.10;99.90
54082;DHT22;39986;50.770;0.266;2023-03-14T11:49:27;18.80;99.90
54082;DHT22;39986;50.770;0.266;2023-03-14T11:51:56;20.80;99.90
54082;DHT22;39986;50.770;0.266;2023-03-14T11:59:49;19.70;99.40
54082;DHT22;39986;50.770;0.266;2023-03-14T12:10:29;25.20;83.70
54082;DHT22;39986;50.770;0.266;2023-03-14T12:12:55;26.00;76.30
54082;DHT22;39986;50.770;0.266;2023-03-14T12:15:21;26.40;70.10
54082;DHT22;39986;50.770;0.266;2023-03-14T12:17:47;28.20;68.00
54082;DHT22;39986;50.770;0.266;2023-03-14T12:20:25;30.00;59.10
54082;DHT22;39986;50.770;0.266;2023-03-14T12:23:02;30.40;55.40
54082;DHT22;39986;50.770;0.266;2023-03-14T12:25:28;30.30;54.50
54082;DHT22;39986;50.770;0.266;2023-03-14T12:30:40;30.30;52.20
54082;DHT22;39986;50.770;0.266;2023-03-14T12:35:41;32.20;46.50
54082;DHT22;39986;50.770;0.266;2023-03-14T12:38:09;31.90;45.60
54082;DHT22;39986;50.770;0.266;2023-03-14T12:40:39;32.30;44.70
54082;DHT22;39986;50.770;0.266;2023-03-14T12:43:20;33.10;43.50
54082;DHT22;39986;50.770;0.266;2023-03-14T12:46:09;32.70;41.40
54082;DHT22;39986;50.770;0.266;2023-03-14T12:48:39;30.10;43.60
54082;DHT22;39986;50.770;0.266;2023-03-14T12:51:12;27.10;46.30
54082;DHT22;39986;50.770;0.266;2023-03-14T12:58:47;23.60;54.90
54082;DHT22;39986;50.770;0.266;2023-03-14T13:01:18;23.80;54.80
54082;DHT22;39986;50.770;0.266;2023-03-14T13:03:48;22.90;55.20
54082;DHT22;39986;50.770;0.266;2023-03-14T13:06:44;21.70;58.80
54082;DHT22;39986;50.770;0.266;2023-03-14T13:09:25;21.20;60.50
54082;DHT22;39986;50.770;0.266;2023-03-14T13:11:46;23.30;61.20
54082;DHT22;39986;50.770;0.266;2023-03-14T13:14:11;26.00;53.20
54082;DHT22;39986;50.770;0.266;2023-03-14T13:16:37;25.40;52.90
54082;DHT22;39986;50.770;0.266;2023-03-14T13:19:03;24.30;55.80
54082;DHT22;39986;50.770;0.266;2023-03-14T13:21:35;25.50;53.70
54082;DHT22;39986;50.770;0.266;2023-03-14T13:24:02;25.30;50.80
54082;DHT22;39986;50.770;0.266;2023-03-14T13:28:59;25.40;49.10
54082;DHT22;39986;50.770;0.266;2023-03-14T13:31:25;25.30;51.20
54082;DHT22;39986;50.770;0.266;2023-03-14T13:34:09;25.40;51.90
54082;DHT22;39986;50.770;0.266;2023-03-14T13:36:35;25.40;50.80
54082;DHT22;39986;50.770;0.266;2023-03-14T13:39:01;26.70;49.60
54082;DHT22;39986;50.770;0.266;2023-03-14T13:41:27;26.70;48.50
54082;DHT22;39986;50.770;0.266;2023-03-14T13:43:58;25.00;49.60
54082;DHT22;39986;50.770;0.266;2023-03-14T13:46:24;23.00;51.60
54082;DHT22;39986;50.770;0.266;2023-03-14T13:49:02;21.30;53.90
54082;DHT22;39986;50.770;0.266;2023-03-14T13:51:28;20.80;57.80
54082;DHT22;39986;50.770;0.266;2023-03-14T13:53:56;24.00;55.60
54082;DHT22;39986;50.770;0.266;2023-03-14T13:56:24;28.60;50.20
54082;DHT22;39986;50.770;0.266;2023-03-14T13:58:50;29.80;43.80
54082;DHT22;39986;50.770;0.266;2023-03-14T14:01:18;28.00;44.40
54082;DHT22;39986;50.770;0.266;2023-03-14T14:03:50;25.40;45.90
54082;DHT22;39986;50.770;0.266;2023-03-14T14:06:33;23.10;49.50
54082;DHT22;39986;50.770;0.266;2023-03-14T14:09:00;21.40;53.10
54082;DHT22;39986;50.770;0.266;2023-03-14T14:13:56;22.10;55.60
54082;DHT22;39986;50.770;0.266;2023-03-14T14:16:25;26.00;51.60
54082;DHT22;39986;50.770;0.266;2023-03-14T14:18:52;29.80;47.30
54082;DHT22;39986;50.770;0.266;2023-03-14T14:21:20;32.90;42.70
54082;DHT22;39986;50.770;0.266;2023-03-14T14:23:46;31.90;39.00
54082;DHT22;39986;50.770;0.266;2023-03-14T14:26:18;28.80;41.70
54082;DHT22;39986;50.770;0.266;2023-03-14T14:28:44;26.10;46.00
54082;DHT22;39986;50.770;0.266;2023-03-14T14:33:44;27.80;44.60
54082;DHT22;39986;50.770;0.266;2023-03-14T14:36:21;29.70;43.00
54082;DHT22;39986;50.770;0.266;2023-03-14T14:39:06;31.70;41.90
54082;DHT22;39986;50.770;0.266;2023-03-14T14:41:35;33.80;40.90
54082;DHT22;39986;50.770;0.266;2023-03-14T14:44:04;35.60;38.40
54082;DHT22;39986;50.770;0.266;2023-03-14T14:46:31;36.30;37.00
54082;DHT22;39986;50.770;0.266;2023-03-14T14:49:05;37.10;35.80
54082;DHT22;39986;50.770;0.266;2023-03-14T14:51:32;37.50;34.00
54082;DHT22;39986;50.770;0.266;2023-03-14T14:54:08;36.80;33.60
54082;DHT22;39986;50.770;0.266;2023-03-14T14:56:35;36.70;33.70
54082;DHT22;39986;50.770;0.266;2023-03-14T14:59:02;36.90;32.90
54082;DHT22;39986;50.770;0.266;2023-03-14T15:01:31;36.70;31.30
54082;DHT22;39986;50.770;0.266;2023-03-14T15:03:57;36.10;32.30
54082;DHT22;39986;50.770;0.266;2023-03-14T15:06:23;35.40;32.50
54082;DHT22;39986;50.770;0.266;2023-03-14T15:08:49;33.50;33.00
54082;DHT22;39986;50.770;0.266;2023-03-14T15:11:19;30.50;35.00
54082;DHT22;39986;50.770;0.266;2023-03-14T15:13:45;27.10;38.00
54082;DHT22;39986;50.770;0.266;2023-03-14T15:16:11;24.80;40.70
54082;DHT22;39986;50.770;0.266;2023-03-14T15:18:37;22.80;42.70
54082;DHT22;39986;50.770;0.266;2023-03-14T15:21:03;21.00;46.30
54082;DHT22;39986;50.770;0.266;2023-03-14T15:23:28;19.70;48.80
54082;DHT22;39986;50.770;0.266;2023-03-14T15:25:54;19.00;49.40
54082;DHT22;39986;50.770;0.266;2023-03-14T15:28:20;20.40;51.00
54082;DHT22;39986;50.770;0.266;2023-03-14T15:30:50;24.30;44.50
54082;DHT22;39986;50.770;0.266;2023-03-14T15:33:16;28.00;40.50
54082;DHT22;39986;50.770;0.266;2023-03-14T15:35:42;30.40;36.60
54082;DHT22;39986;50.770;0.266;2023-03-14T15:38:16;32.40;34.20
54082;DHT22;39986;50.770;0.266;2023-03-14T15:40:41;33.40;33.40
54082;DHT22;39986;50.770;0.266;2023-03-14T15:43:07;33.40;33.20
54082;DHT22;39986;50.770;0.266;2023-03-14T15:45:33;30.70;34.50
54082;DHT22;39986;50.770;0.266;2023-03-14T15:47:59;27.30;35.80
54082;DHT22;39986;50.770;0.266;2023-03-14T15:50:24;25.00;38.80
54082;DHT22;39986;50.770;0.266;2023-03-14T15:52:50;22.10;42.10
54082;DHT22;39986;50.770;0.266;2023-03-14T15:55:16;19.90;46.10
54082;DHT22;39986;50.770;0.266;2023-03-14T15:57:44;18.40;50.20
54082;DHT22;39986;50.770;0.266;2023-03-14T16:00:15;17.30;53.70
54082;DHT22;39986;50.770;0.266;2023-03-14T16:02:41;16.60;57.90
54082;DHT22;39986;50.770;0.266;2023-03-14T16:05:09;16.20;59.70
54082;DHT22;39986;50.770;0.266;2023-03-14T16:07:35;15.90;62.10
54082;DHT22;39986;50.770;0.266;2023-03-14T16:10:01;15.60;64.80
54082;DHT22;39986;50.770;0.266;2023-03-14T16:12:28;15.40;66.60
54082;DHT22;39986;50.770;0.266;2023-03-14T16:14:54;15.20;67.40
54082;DHT22;39986;50.770;0.266;2023-03-14T16:17:19;14.80;85.40
54082;DHT22;39986;50.770;0.266;2023-03-14T16:19:45;14.40;99.80
54082;DHT22;39986;50.770;0.266;2023-03-14T16:22:10;13.90;99.90
54082;DHT22;39986;50.770;0.266;2023-03-14T16:24:36;13.40;99.90
54082;DHT22;39986;50.770;0.266;2023-03-14T16:27:01;13.00;99.90
54082;DHT22;39986;50.770;0.266;2023-03-14T16:29:28;12.50;99.90
54082;DHT22;39986;50.770;0.266;2023-03-14T16:31:54;12.40;99.90
54082;DHT22;39986;50.770;0.266;2023-03-14T16:34:20;12.30;99.90
54082;DHT22;39986;50.770;0.266;2023-03-14T16:36:45;12.20;99.90
54082;DHT22;39986;50.770;0.266;2023-03-14T16:39:12;12.10;99.90
54082;DHT22;39986;50.770;0.266;2023-03-14T16:41:37;12.10;99.90
54082;DHT22;39986;50.770;0.266;2023-03-14T16:44:03;12.00;99.90
54082;DHT22;39986;50.770;0.266;2023-03-14T16:46:29;12.00;99.90
54082;DHT22;39986;50.770;0.266;2023-03-14T16:48:54;11.80;99.90